createdAt,value
2022-12-14T00:01:15.433Z,70.17
2022-12-14T00:03:42.050Z,69.71
2022-12-14T00:06:13.486Z,69.20
2022-12-14T00:08:41.992Z,68.78
2022-12-14T00:11:09.903Z,68.27
2022-12-14T00:13:37.354Z,67.89
2022-12-14T00:16:23.670Z,68.01
2022-12-14T00:18:53.256Z,67.75
2022-12-14T00:21:20.329Z,68.06
2022-12-14T00:23:48.992Z,67.54
2022-12-14T00:26:19.696Z,67.16
2022-12-14T00:28:49.479Z,67.02
2022-12-14T00:31:16.981Z,67.14
2022-12-14T00:33:43.627Z,66.58
2022-12-14T00:36:11.801Z,66.33
2022-12-14T00:38:39.285Z,66.74
2022-12-14T00:41:05.892Z,66.21
2022-12-14T00:43:32.545Z,66.85
2022-12-14T00:45:59.154Z,66.97
2022-12-14T00:48:27.171Z,67.07
2022-12-14T00:50:55.529Z,67.66
2022-12-14T00:53:23.899Z,67.58
2022-12-14T00:55:51.597Z,67.24
2022-12-14T00:58:22.883Z,67.34
2022-12-14T01:01:01.363Z,67.54
2022-12-14T01:03:28.632Z,67.22
2022-12-14T01:05:56.134Z,67.31
2022-12-14T01:08:23.956Z,67.91
2022-12-14T01:10:51.354Z,67.65
2022-12-14T01:13:19.110Z,67.81
2022-12-14T01:15:46.162Z,67.87
2022-12-14T01:18:13.193Z,68.02
2022-12-14T01:20:40.244Z,67.71
2022-12-14T01:23:07.259Z,67.24
2022-12-14T01:25:34.241Z,67.57
2022-12-14T01:28:00.836Z,67.49
2022-12-14T01:30:27.666Z,67.50
2022-12-14T01:32:54.405Z,67.53
2022-12-14T01:35:20.997Z,67.85
2022-12-14T01:37:48.912Z,68.20
2022-12-14T01:40:16.329Z,68.16
2022-12-14T01:42:42.790Z,68.86
2022-12-14T01:45:21.115Z,69.07
2022-12-14T01:47:54.869Z,68.74
2022-12-14T01:50:37.642Z,68.91
2022-12-14T01:53:14.394Z,68.89
2022-12-14T01:55:48.835Z,69.63
2022-12-14T01:58:24.225Z,69.46
2022-12-14T02:00:55.505Z,68.20
2022-12-14T02:03:29.802Z,68.75
2022-12-14T02:06:03.523Z,68.56
2022-12-14T02:08:31.030Z,68.82
2022-12-14T02:10:58.885Z,68.75
2022-12-14T02:13:32.298Z,68.71
2022-12-14T02:15:58.909Z,69.07
2022-12-14T02:18:28.846Z,68.92
2022-12-14T02:21:18.152Z,68.86
2022-12-14T02:24:13.408Z,68.32
2022-12-14T02:27:10.588Z,67.86
2022-12-14T02:29:42.838Z,68.19
2022-12-14T02:32:09.228Z,68.06
2022-12-14T02:34:57.913Z,68.15
2022-12-14T02:38:01.861Z,68.72
2022-12-14T02:40:57.633Z,67.86
2022-12-14T02:43:30.034Z,67.99
2022-12-14T02:46:05.164Z,67.95
2022-12-14T02:48:39.138Z,68.42
2022-12-14T02:51:24.023Z,68.24
2022-12-14T02:54:13.004Z,68.79
2022-12-14T02:56:55.300Z,68.23
2022-12-14T02:59:24.462Z,68.68
2022-12-14T03:01:53.255Z,68.93
2022-12-14T03:04:19.791Z,69.11
2022-12-14T03:07:00.151Z,69.10
2022-12-14T03:09:30.833Z,69.72
2022-12-14T03:12:09.758Z,69.23
2022-12-14T03:14:43.269Z,69.42
2022-12-14T03:17:24.624Z,69.49
2022-12-14T03:19:56.411Z,69.39
2022-12-14T03:22:38.200Z,69.60
2022-12-14T03:25:14.709Z,70.20
2022-12-14T03:27:50.802Z,69.77
2022-12-14T03:30:37.207Z,69.70
2022-12-14T03:33:13.617Z,69.58
2022-12-14T03:35:49.869Z,69.49
2022-12-14T03:38:35.750Z,69.37
2022-12-14T03:41:14.014Z,69.75
2022-12-14T03:44:30.757Z,69.36
2022-12-14T03:47:35.445Z,69.45
2022-12-14T03:50:04.678Z,69.06
2022-12-14T03:52:47.600Z,69.69
2022-12-14T03:55:57.471Z,69.33
2022-12-14T03:58:44.058Z,69.45
2022-12-14T04:01:39.657Z,69.16
2022-12-14T04:04:22.419Z,68.66
2022-12-14T04:07:08.380Z,68.43
2022-12-14T04:09:46.318Z,68.14
2022-12-14T04:12:18.207Z,67.94
2022-12-14T04:15:11.536Z,67.62
2022-12-14T04:18:07.271Z,67.67
2022-12-14T04:20:45.918Z,67.67
2022-12-14T04:23:24.496Z,67.67
2022-12-14T04:25:52.481Z,67.53
2022-12-14T04:28:42.011Z,67.61
2022-12-14T04:31:14.807Z,67.48
2022-12-14T04:33:52.588Z,67.85
2022-12-14T04:36:32.200Z,67.08
2022-12-14T04:39:08.143Z,67.79
2022-12-14T04:41:46.091Z,67.88
2022-12-14T04:44:24.028Z,68.11
2022-12-14T04:46:53.947Z,67.76
2022-12-14T04:49:29.791Z,67.65
2022-12-14T04:52:05.700Z,67.90
2022-12-14T04:54:43.296Z,67.49
2022-12-14T04:57:28.712Z,67.38
2022-12-14T04:59:57.498Z,67.01
2022-12-14T05:02:48.164Z,67.06
2022-12-14T05:05:24.165Z,67.04
2022-12-14T05:08:07.043Z,66.98
2022-12-14T05:10:51.032Z,67.28
2022-12-14T05:13:30.943Z,67.49
2022-12-14T05:15:59.167Z,67.12
2022-12-14T05:18:26.021Z,67.29
2022-12-14T05:20:52.617Z,67.70
2022-12-14T05:23:19.101Z,67.15
2022-12-14T05:25:45.708Z,67.02
2022-12-14T05:28:15.735Z,67.51
2022-12-14T05:30:42.506Z,68.01
2022-12-14T05:33:18.841Z,68.81
2022-12-14T05:35:45.404Z,68.52
2022-12-14T05:38:11.867Z,68.71
2022-12-14T05:40:38.753Z,68.37
2022-12-14T05:43:07.103Z,68.25
2022-12-14T05:45:33.595Z,67.36
2022-12-14T05:48:00.160Z,67.62
2022-12-14T05:50:26.634Z,67.17
2022-12-14T05:52:53.852Z,66.95
2022-12-14T05:55:20.340Z,66.67
2022-12-14T05:57:46.809Z,67.03
2022-12-14T06:00:13.973Z,66.74
2022-12-14T06:02:40.535Z,66.67
2022-12-14T06:05:07.350Z,66.26
2022-12-14T06:07:33.858Z,66.50
2022-12-14T06:10:00.340Z,65.95
2022-12-14T06:12:28.282Z,65.43
2022-12-14T06:14:54.721Z,65.44
2022-12-14T06:17:21.172Z,65.81
2022-12-14T06:19:49.792Z,65.78
2022-12-14T06:22:17.491Z,65.09
2022-12-14T06:24:43.944Z,65.59
2022-12-14T06:27:10.418Z,65.74
2022-12-14T06:29:36.883Z,65.66
2022-12-14T06:32:03.364Z,65.99
2022-12-14T06:34:33.934Z,65.63
2022-12-14T06:37:03.281Z,65.79
2022-12-14T06:39:29.880Z,65.05
2022-12-14T06:41:56.322Z,65.10
2022-12-14T06:44:22.859Z,65.48
2022-12-14T06:46:49.455Z,65.59
2022-12-14T06:49:16.413Z,65.28
2022-12-14T06:51:43.638Z,64.98
2022-12-14T06:54:12.362Z,66.01
2022-12-14T06:56:40.088Z,65.26
2022-12-14T06:59:06.679Z,65.44
2022-12-14T07:01:33.246Z,65.67
2022-12-14T07:03:59.845Z,66.51
2022-12-14T07:06:31.071Z,66.71
2022-12-14T07:08:59.848Z,67.00
2022-12-14T07:11:29.065Z,66.41
2022-12-14T07:13:56.735Z,67.20
2022-12-14T07:16:27.354Z,67.75
2022-12-14T07:18:54.844Z,67.81
2022-12-14T07:21:22.949Z,68.28
2022-12-14T07:23:50.021Z,68.75
2022-12-14T07:26:25.516Z,69.20
2022-12-14T07:28:53.100Z,69.15
2022-12-14T07:31:23.804Z,69.38
2022-12-14T07:33:53.816Z,69.17
2022-12-14T07:36:22.040Z,68.84
2022-12-14T07:38:50.570Z,69.07
2022-12-14T07:41:23.663Z,69.12
2022-12-14T07:43:51.850Z,69.31
2022-12-14T07:46:23.371Z,69.34
2022-12-14T07:48:55.808Z,69.70
2022-12-14T07:51:25.969Z,69.62
2022-12-14T07:53:54.379Z,69.26
2022-12-14T07:56:24.041Z,69.29
2022-12-14T07:58:50.883Z,69.11
2022-12-14T08:01:20.062Z,69.58
2022-12-14T08:03:49.691Z,68.24
2022-12-14T08:06:18.696Z,67.33
2022-12-14T08:08:46.081Z,67.74
2022-12-14T08:11:14.096Z,66.62
2022-12-14T08:13:41.179Z,66.81
2022-12-14T08:16:11.754Z,66.81
2022-12-14T08:18:38.699Z,66.74
2022-12-14T08:21:07.823Z,66.71
2022-12-14T08:23:35.308Z,66.16
2022-12-14T08:26:03.659Z,66.51
2022-12-14T08:28:31.450Z,66.64
2022-12-14T08:31:05.596Z,67.26
2022-12-14T08:33:33.487Z,66.99
2022-12-14T08:36:10.744Z,66.05
2022-12-14T08:38:38.062Z,65.60
2022-12-14T08:41:07.084Z,66.61
2022-12-14T08:43:33.939Z,66.80
2022-12-14T08:46:01.315Z,67.26
2022-12-14T08:48:27.982Z,66.70
2022-12-14T08:50:54.614Z,66.96
2022-12-14T08:53:21.165Z,66.89
2022-12-14T08:55:47.810Z,66.61
2022-12-14T08:58:14.286Z,67.18
2022-12-14T09:00:40.878Z,67.42
2022-12-14T09:03:07.438Z,66.87
2022-12-14T09:05:35.238Z,66.96
2022-12-14T09:08:01.721Z,67.24
2022-12-14T09:10:28.220Z,66.76
2022-12-14T09:12:54.685Z,67.04
2022-12-14T09:15:21.162Z,65.74
2022-12-14T09:17:49.479Z,64.94
2022-12-14T09:20:16.134Z,64.57
2022-12-14T09:22:42.868Z,64.63
2022-12-14T09:25:09.489Z,64.27
2022-12-14T09:27:35.988Z,64.23
2022-12-14T09:30:02.618Z,64.11
2022-12-14T09:32:29.710Z,63.37
2022-12-14T09:34:56.334Z,63.17
2022-12-14T09:37:22.816Z,64.33
2022-12-14T09:39:49.294Z,64.83
2022-12-14T09:42:27.884Z,64.09
2022-12-14T09:45:13.139Z,64.76
2022-12-14T09:47:55.820Z,64.84
2022-12-14T09:50:24.417Z,65.17
2022-12-14T09:52:55.837Z,65.80
2022-12-14T09:55:37.412Z,65.50
2022-12-14T09:58:18.649Z,65.39
2022-12-14T10:01:03.417Z,65.69
2022-12-14T10:03:45.194Z,65.77
2022-12-14T10:06:36.230Z,65.38
2022-12-14T10:09:22.886Z,65.22
2022-12-14T10:12:23.256Z,67.80
2022-12-14T10:15:03.084Z,68.54
2022-12-14T10:18:56.909Z,69.57
2022-12-14T10:21:14.466Z,70.06
2022-12-14T10:23:56.574Z,73.16
2022-12-14T10:26:30.098Z,71.18
2022-12-14T10:29:12.894Z,70.46
2022-12-14T10:32:15.382Z,69.84
2022-12-14T10:34:42.516Z,69.24
2022-12-14T10:37:30.468Z,68.18
2022-12-14T10:40:15.599Z,67.85
2022-12-14T10:43:07.974Z,67.39
2022-12-14T10:45:48.115Z,67.18
2022-12-14T10:48:51.817Z,66.92
2022-12-14T10:51:40.707Z,67.32
2022-12-14T10:54:33.752Z,67.64
2022-12-14T10:57:00.418Z,67.07
2022-12-14T10:59:39.722Z,67.33
2022-12-14T11:02:20.737Z,66.68
2022-12-14T11:04:57.389Z,66.57
2022-12-14T11:07:40.157Z,66.61
2022-12-14T11:10:15.894Z,66.29
2022-12-14T11:12:54.408Z,66.00
2022-12-14T11:15:29.685Z,65.88
2022-12-14T11:18:02.888Z,65.57
2022-12-14T11:20:29.439Z,65.92
2022-12-14T11:23:00.043Z,66.37
2022-12-14T11:25:31.757Z,67.53
2022-12-14T11:28:03.660Z,66.41
2022-12-14T11:30:30.278Z,67.62
2022-12-14T11:32:57.324Z,67.16
2022-12-14T11:35:24.042Z,67.09
2022-12-14T11:37:58.885Z,67.83
2022-12-14T11:40:27.724Z,67.14
2022-12-14T11:43:03.048Z,67.28
2022-12-14T11:45:32.771Z,66.50
2022-12-14T11:48:32.108Z,66.77
2022-12-14T11:51:13.338Z,66.56
2022-12-14T11:53:40.863Z,65.95
2022-12-14T11:56:15.157Z,65.85
2022-12-14T11:58:53.524Z,66.83
2022-12-14T12:01:26.321Z,66.70
2022-12-14T12:03:57.742Z,67.70
2022-12-14T12:06:27.354Z,67.32
2022-12-14T12:09:01.305Z,68.27
2022-12-14T12:11:31.876Z,68.10
2022-12-14T12:14:25.596Z,68.54
2022-12-14T12:16:52.155Z,69.25
2022-12-14T12:19:31.898Z,68.40
2022-12-14T12:22:03.503Z,68.38
2022-12-14T12:25:24.899Z,68.60
2022-12-14T12:27:58.004Z,68.30
2022-12-14T12:30:28.060Z,68.27
2022-12-14T12:33:02.714Z,69.39
2022-12-14T12:35:51.565Z,68.66
2022-12-14T12:38:50.026Z,68.95
2022-12-14T12:41:32.213Z,69.88
2022-12-14T12:44:19.208Z,68.95
2022-12-14T12:47:38.415Z,67.79
2022-12-14T12:50:25.182Z,68.32
2022-12-14T12:53:06.764Z,68.79
2022-12-14T12:55:42.275Z,68.14
2022-12-14T12:58:31.024Z,68.30
2022-12-14T13:01:02.327Z,68.09
2022-12-14T13:03:38.883Z,68.52
2022-12-14T13:06:21.888Z,68.63
2022-12-14T13:09:02.152Z,68.99
2022-12-14T13:11:35.675Z,68.91
2022-12-14T13:14:15.092Z,69.55
2022-12-14T13:16:43.671Z,68.67
2022-12-14T13:19:54.636Z,71.67
2022-12-14T13:22:29.624Z,71.52
2022-12-14T13:25:26.476Z,71.12
2022-12-14T13:28:20.334Z,72.05
2022-12-14T13:31:03.679Z,72.44
2022-12-14T13:33:51.870Z,73.25
2022-12-14T13:36:47.491Z,72.13
2022-12-14T13:39:13.898Z,70.90
2022-12-14T13:42:23.399Z,72.24
2022-12-14T13:45:02.217Z,73.05
2022-12-14T13:47:36.018Z,73.47
2022-12-14T13:50:35.497Z,73.23
2022-12-14T13:53:17.126Z,72.89
2022-12-14T13:55:54.782Z,72.67
2022-12-14T13:58:40.987Z,72.27
2022-12-14T14:01:14.202Z,73.02
2022-12-14T14:03:44.232Z,73.65
2022-12-14T14:06:32.877Z,72.94
2022-12-14T14:08:59.417Z,72.87
2022-12-14T14:11:37.044Z,72.98
2022-12-14T14:14:18.342Z,73.29
2022-12-14T14:16:53.467Z,74.00
2022-12-14T14:19:24.860Z,73.95
2022-12-14T14:24:54.705Z,72.47
2022-12-14T14:27:26.556Z,72.15
2022-12-14T14:29:55.602Z,71.54
2022-12-14T14:32:32.362Z,71.09
2022-12-14T14:35:02.578Z,71.42
2022-12-14T14:37:35.772Z,72.50
2022-12-14T14:40:23.447Z,72.35
2022-12-14T14:43:04.361Z,72.31
2022-12-14T14:45:52.078Z,72.58
2022-12-14T14:48:41.317Z,72.38
2022-12-14T14:51:10.684Z,72.78
2022-12-14T14:53:39.346Z,73.00
2022-12-14T14:56:31.526Z,72.66
2022-12-14T14:59:19.736Z,72.59
2022-12-14T15:01:49.884Z,72.68
2022-12-14T15:04:23.904Z,74.52
2022-12-14T15:06:56.974Z,74.82
2022-12-14T15:10:01.884Z,74.10
2022-12-14T15:12:47.750Z,75.10
2022-12-14T15:15:35.652Z,77.18
2022-12-14T15:18:16.283Z,77.20
2022-12-14T15:21:01.810Z,76.03
2022-12-14T15:23:36.991Z,75.73
2022-12-14T15:26:16.581Z,75.65
2022-12-14T15:28:47.700Z,75.15
2022-12-14T15:31:14.795Z,74.96
2022-12-14T15:33:43.703Z,75.33
2022-12-14T15:36:19.917Z,75.41
2022-12-14T15:38:55.066Z,75.44
2022-12-14T15:41:24.419Z,74.74
2022-12-14T15:43:56.492Z,74.52
2022-12-14T15:46:27.744Z,74.05
2022-12-14T15:48:59.727Z,74.69
2022-12-14T15:51:44.335Z,74.69
2022-12-14T15:54:19.584Z,74.61
2022-12-14T15:56:51.751Z,74.87
2022-12-14T15:59:35.363Z,74.58
2022-12-14T16:02:30.851Z,74.31
2022-12-14T16:05:02.568Z,75.75
2022-12-14T16:07:45.519Z,75.82
2022-12-14T16:10:29.818Z,75.88
2022-12-14T16:13:06.370Z,77.26
2022-12-14T16:15:33.396Z,76.46
2022-12-14T16:18:02.944Z,76.35
2022-12-14T16:20:38.195Z,76.10
2022-12-14T16:23:06.435Z,76.14
2022-12-14T16:25:36.958Z,76.10
2022-12-14T16:28:33.907Z,75.82
2022-12-14T16:31:08.256Z,75.85
2022-12-14T16:33:37.139Z,75.60
2022-12-14T16:36:21.848Z,75.44
2022-12-14T16:39:03.094Z,76.04
2022-12-14T16:41:56.711Z,76.01
2022-12-14T16:44:28.964Z,75.62
2022-12-14T16:47:15.339Z,75.19
2022-12-14T16:50:03.482Z,75.07
2022-12-14T16:52:31.150Z,75.25
2022-12-14T16:55:09.561Z,75.56
2022-12-14T16:57:51.265Z,75.34
2022-12-14T17:00:27.113Z,75.19
2022-12-14T17:03:05.079Z,75.45
2022-12-14T17:05:36.276Z,76.00
2022-12-14T17:08:05.189Z,75.77
2022-12-14T17:10:31.646Z,75.88
2022-12-14T17:13:02.661Z,76.07
2022-12-14T17:15:35.086Z,78.01
2022-12-14T17:18:04.668Z,81.42
2022-12-14T17:20:34.948Z,80.28
2022-12-14T17:23:02.191Z,79.51
2022-12-14T17:25:31.645Z,80.10
2022-12-14T17:27:59.572Z,78.61
2022-12-14T17:30:26.566Z,79.50
2022-12-14T17:32:54.845Z,81.30
2022-12-14T17:35:27.838Z,80.04
2022-12-14T17:37:54.349Z,79.23
2022-12-14T17:40:21.706Z,79.08
2022-12-14T17:42:53.908Z,78.25
2022-12-14T17:45:24.005Z,78.01
2022-12-14T17:47:50.530Z,77.20
2022-12-14T17:50:18.198Z,76.89
2022-12-14T17:52:46.183Z,76.54
2022-12-14T17:55:18.284Z,76.66
2022-12-14T17:57:45.858Z,76.56
2022-12-14T18:00:21.662Z,77.37
2022-12-14T18:02:48.395Z,78.51
2022-12-14T18:05:21.802Z,78.68
2022-12-14T18:07:49.775Z,77.69
2022-12-14T18:10:17.332Z,77.30
2022-12-14T18:12:44.379Z,77.33
2022-12-14T18:15:26.100Z,77.43
2022-12-14T18:17:52.619Z,77.30
2022-12-14T18:20:21.845Z,77.04
2022-12-14T18:22:49.544Z,77.08
2022-12-14T18:25:36.779Z,76.70
2022-12-14T18:28:05.699Z,76.50
2022-12-14T18:30:43.121Z,78.82
2022-12-14T18:33:18.024Z,78.46
2022-12-14T18:35:46.388Z,78.36
2022-12-14T18:38:13.721Z,77.81
2022-12-14T18:40:44.700Z,77.96
2022-12-14T18:43:20.656Z,80.55
2022-12-14T18:45:47.448Z,80.72
2022-12-14T18:48:13.950Z,80.10
2022-12-14T18:50:43.051Z,80.63
2022-12-14T18:53:21.714Z,80.14
2022-12-14T18:55:48.723Z,80.06
2022-12-14T18:58:29.286Z,80.92
2022-12-14T19:00:58.765Z,80.59
2022-12-14T19:03:26.758Z,80.41
2022-12-14T19:06:26.853Z,82.44
2022-12-14T19:08:49.608Z,81.42
2022-12-14T19:11:31.229Z,80.59
2022-12-14T19:13:58.072Z,80.13
2022-12-14T19:16:24.709Z,80.38
2022-12-14T19:18:51.334Z,80.67
2022-12-14T19:21:18.882Z,81.07
2022-12-14T19:23:45.934Z,80.73
2022-12-14T19:26:12.440Z,79.71
2022-12-14T19:28:38.972Z,80.09
2022-12-14T19:31:05.522Z,79.91
2022-12-14T19:33:32.642Z,79.75
2022-12-14T19:35:59.482Z,79.98
2022-12-14T19:38:25.956Z,79.77
2022-12-14T19:41:02.500Z,80.15
2022-12-14T19:43:29.566Z,80.23
2022-12-14T19:45:56.600Z,80.40
2022-12-14T19:48:23.128Z,80.62
2022-12-14T19:50:49.861Z,79.95
2022-12-14T19:53:21.592Z,79.79
2022-12-14T19:55:53.701Z,79.54
2022-12-14T19:58:20.901Z,79.55
2022-12-14T20:00:47.906Z,79.79
2022-12-14T20:03:14.549Z,80.38
2022-12-14T20:05:41.085Z,79.70
2022-12-14T20:08:07.776Z,79.03
2022-12-14T20:10:36.267Z,79.05
2022-12-14T20:13:02.765Z,79.36
2022-12-14T20:15:29.349Z,80.91
2022-12-14T20:17:55.817Z,80.91
2022-12-14T20:20:23.139Z,81.81
2022-12-14T20:22:49.653Z,81.06
2022-12-14T20:25:16.144Z,81.19
2022-12-14T20:27:42.723Z,81.01
2022-12-14T20:30:09.898Z,80.81
2022-12-14T20:32:36.419Z,80.59
2022-12-14T20:35:02.918Z,80.31
2022-12-14T20:37:29.465Z,80.89
2022-12-14T20:39:55.914Z,80.21
2022-12-14T20:42:22.418Z,80.45
2022-12-14T20:44:49.416Z,81.55
2022-12-14T20:47:16.224Z,80.63
2022-12-14T20:49:42.746Z,80.89
2022-12-14T20:52:09.215Z,81.86
2022-12-14T20:54:35.691Z,83.78
2022-12-14T20:57:02.186Z,82.66
2022-12-14T20:59:28.699Z,82.42
2022-12-14T21:01:56.587Z,82.07
2022-12-14T21:04:23.367Z,81.15
2022-12-14T21:06:50.050Z,81.16
2022-12-14T21:09:16.559Z,80.63
2022-12-14T21:11:46.713Z,80.69
2022-12-14T21:14:14.349Z,80.71
2022-12-14T21:16:41.932Z,81.43
2022-12-14T21:19:10.996Z,80.72
2022-12-14T21:21:37.520Z,80.86
2022-12-14T21:24:04.063Z,80.76
2022-12-14T21:26:30.543Z,80.74
2022-12-14T21:28:57.001Z,79.74
2022-12-14T21:31:23.627Z,79.74
2022-12-14T21:33:50.234Z,80.63
2022-12-14T21:36:16.745Z,81.79
2022-12-14T21:38:43.208Z,81.92
2022-12-14T21:41:11.336Z,82.06
2022-12-14T21:43:37.818Z,81.03
2022-12-14T21:46:04.828Z,80.39
2022-12-14T21:48:31.429Z,79.78
2022-12-14T21:50:58.206Z,79.63
2022-12-14T21:53:28.843Z,79.64
2022-12-14T21:55:58.223Z,79.12
2022-12-14T21:58:24.706Z,79.38
2022-12-14T22:00:51.231Z,79.09
2022-12-14T22:03:17.789Z,79.11
2022-12-14T22:05:44.319Z,80.59
2022-12-14T22:08:10.800Z,79.85
2022-12-14T22:10:37.280Z,79.60
2022-12-14T22:13:03.740Z,79.11
2022-12-14T22:15:30.247Z,78.43
2022-12-14T22:17:56.695Z,80.16
2022-12-14T22:20:23.252Z,80.65
2022-12-14T22:22:49.686Z,80.09
2022-12-14T22:25:16.210Z,80.21
2022-12-14T22:27:42.761Z,81.91
2022-12-14T22:30:09.598Z,81.01
2022-12-14T22:32:36.038Z,80.51
2022-12-14T22:35:02.581Z,80.28
2022-12-14T22:37:29.053Z,80.76
2022-12-14T22:39:55.569Z,80.39
2022-12-14T22:42:22.051Z,79.68
2022-12-14T22:44:48.693Z,79.68
2022-12-14T22:47:15.195Z,78.71
2022-12-14T22:49:41.758Z,79.79
2022-12-14T22:52:08.229Z,79.80
2022-12-14T22:54:38.161Z,80.24
2022-12-14T22:57:13.581Z,80.26
2022-12-14T22:59:46.362Z,80.42
2022-12-14T23:02:13.123Z,79.75
2022-12-14T23:04:39.840Z,80.00
2022-12-14T23:07:06.370Z,79.68
2022-12-14T23:09:33.381Z,80.97
2022-12-14T23:11:59.857Z,81.64
2022-12-14T23:14:26.361Z,81.57
2022-12-14T23:16:52.913Z,81.48
2022-12-14T23:19:19.395Z,81.18
2022-12-14T23:21:45.905Z,80.32
2022-12-14T23:24:12.393Z,82.13
2022-12-14T23:26:38.864Z,82.04
2022-12-14T23:29:05.416Z,81.02
2022-12-14T23:31:31.928Z,82.77
2022-12-14T23:33:58.412Z,82.47
2022-12-14T23:36:25.069Z,81.01
2022-12-14T23:38:51.573Z,81.06
2022-12-14T23:41:18.033Z,80.86
2022-12-14T23:43:44.768Z,79.36
2022-12-14T23:46:11.440Z,80.52
2022-12-14T23:48:37.927Z,79.08
2022-12-14T23:51:04.597Z,79.48
2022-12-14T23:53:31.557Z,78.86
2022-12-14T23:55:59.998Z,78.34
2022-12-14T23:58:26.482Z,77.99
